Time;durP1;ratioP1;P1;durP2;ratioP2;P2;SDS_P1;SDS_P2;PMS_P1;PMS_P2;Temp;Humidity;BMP_temperature;BMP_pressure;BME280_temperature;BME280_humidity;BME280_pressure;Samples;Min_cycle;Max_cycle;Signal;HPM_P1;HPM_P2
2024/04/15 00:01:00;;;;;;;4.15;1.60;;;;;;;19.91;46.31;101511.38;5399316;26;20460;-73
2024/04/15 00:03:26;;;;;;;3.65;1.50;;;;;;;19.79;46.53;101485.88;5399526;26;20357;-70
2024/04/15 00:05:51;;;;;;;5.30;1.50;;;;;;;19.92;46.17;101508.59;5399404;26;20072;-73
2024/04/15 00:08:16;;;;;;;3.70;1.50;;;;;;;19.87;46.24;101499.34;5400873;26;20213;-71
2024/04/15 00:10:41;;;;;;;3.92;1.35;;;;;;;19.79;46.21;101483.22;5398349;26;19999;-75
2024/04/15 00:13:07;;;;;;;3.45;1.30;;;;;;;19.64;46.29;101456.97;5400031;26;20007;-72
2024/04/15 00:15:32;;;;;;;3.50;1.33;;;;;;;19.77;46.25;101469.28;5400265;26;20006;-75
2024/04/15 00:17:57;;;;;;;3.33;1.42;;;;;;;19.79;46.23;101475.28;5400613;26;20637;-72
2024/04/15 00:20:23;;;;;;;2.95;1.30;;;;;;;19.83;46.02;101482.88;5397521;26;19992;-74
2024/04/15 00:22:48;;;;;;;4.25;1.30;;;;;;;19.76;45.91;101460.53;5400522;26;19991;-71
2024/04/15 00:25:13;;;;;;;5.55;1.83;;;;;;;19.88;46.01;101471.94;5398604;26;20874;-73
2024/04/15 00:27:38;;;;;;;4.35;1.55;;;;;;;19.74;46.14;101443.88;5399310;26;19995;-71
2024/04/15 00:30:05;;;;;;;3.63;1.38;;;;;;;19.71;46.12;101434.41;5398275;26;20955;-72
2024/04/15 00:32:30;;;;;;;3.45;1.40;;;;;;;19.76;45.81;101442.00;5400164;26;20016;-71
2024/04/15 00:34:56;;;;;;;3.92;1.50;;;;;;;19.84;46.23;101452.81;5397846;26;20060;-74
2024/04/15 00:37:21;;;;;;;5.50;1.88;;;;;;;19.73;45.88;101440.41;5401222;26;20506;-71
2024/04/15 00:39:46;;;;;;;4.82;1.50;;;;;;;19.84;46.15;101442.25;5397353;26;19995;-74
2024/04/15 00:42:12;;;;;;;4.28;1.50;;;;;;;19.80;45.90;101435.50;5400597;26;20007;-72
2024/04/15 00:44:37;;;;;;;3.35;1.48;;;;;;;19.69;45.92;101412.53;5400087;26;19991;-72
2024/04/15 00:47:04;;;;;;;4.35;1.58;;;;;;;19.82;45.96;101425.66;5399910;26;19998;-74
2024/04/15 00:49:32;;;;;;;4.40;1.90;;;;;;;19.77;45.67;101414.56;5399900;26;20445;-72
2024/04/15 00:51:58;;;;;;;3.72;1.50;;;;;;;19.75;45.90;101404.09;5399903;26;19991;-72
2024/04/15 00:54:25;;;;;;;3.55;1.55;;;;;;;19.78;45.58;101389.81;5397913;26;20010;-72
2024/04/15 00:56:51;;;;;;;2.92;1.35;;;;;;;19.81;45.78;101392.22;5399707;26;20010;-72
2024/04/15 00:59:16;;;;;;;3.75;1.30;;;;;;;19.64;45.56;101368.91;5399760;26;20433;-75
2024/04/15 01:01:42;;;;;;;3.80;1.73;;;;;;;19.65;45.80;101365.31;5399075;26;19999;-73
2024/04/15 01:04:08;;;;;;;4.90;1.55;;;;;;;19.80;45.95;101395.00;5397679;26;19995;-70
2024/04/15 01:06:33;;;;;;;4.38;1.52;;;;;;;19.78;45.32;101386.34;5396852;26;21474;-72
2024/04/15 01:08:58;;;;;;;4.20;1.80;;;;;;;19.67;45.64;101371.31;5399374;26;19995;-71
2024/04/15 01:11:24;;;;;;;4.40;1.70;;;;;;;19.63;45.50;101356.63;5397644;26;20002;-70
2024/04/15 01:13:49;;;;;;;3.67;1.40;;;;;;;19.60;45.48;101347.16;5399875;26;19995;-72
2024/04/15 01:16:15;;;;;;;5.07;1.60;;;;;;;19.72;45.60;101369.94;5396827;26;20326;-71
2024/04/15 01:18:40;;;;;;;5.45;1.60;;;;;;;19.70;45.34;101365.78;5399246;26;20336;-73
2024/04/15 01:21:05;;;;;;;4.25;1.40;;;;;;;19.62;45.46;101350.50;5399470;26;20309;-73
2024/04/15 01:23:31;;;;;;;3.60;1.38;;;;;;;19.63;45.33;101352.19;5399004;26;19999;-73
2024/04/15 01:25:56;;;;;;;3.20;1.20;;;;;;;19.74;45.44;101364.53;5397772;26;19995;-72
2024/04/15 01:28:21;;;;;;;4.50;1.23;;;;;;;19.58;45.08;101342.00;5398405;26;20024;-71
2024/04/15 01:30:47;;;;;;;3.65;1.33;;;;;;;19.75;45.58;101379.47;5398759;26;20082;-71
2024/04/15 01:33:13;;;;;;;3.13;1.20;;;;;;;19.61;45.31;101351.47;5400377;26;20000;-72
2024/04/15 01:35:38;;;;;;;4.55;1.45;;;;;;;19.67;45.16;101364.19;5399205;26;20007;-73
2024/04/15 01:38:03;;;;;;;3.42;1.42;;;;;;;19.58;45.19;101352.56;5399343;26;20042;-71
2024/04/15 01:40:29;;;;;;;3.33;1.25;;;;;;;19.62;45.20;101349.69;5398312;26;20325;-73
2024/04/15 01:42:55;;;;;;;3.78;1.40;;;;;;;19.66;44.96;101351.97;5399186;26;20069;-71
2024/04/15 01:45:21;;;;;;;2.97;1.13;;;;;;;19.57;44.87;101345.59;5396967;26;20445;-70
2024/04/15 01:47:47;;;;;;;3.90;1.45;;;;;;;19.57;45.22;101337.66;5399454;26;20031;-70
2024/04/15 01:50:16;;;;;;;4.57;1.45;;;;;;;19.66;44.89;101348.44;5399043;26;20031;-70
2024/04/15 01:52:41;;;;;;;3.78;1.52;;;;;;;19.56;45.04;101327.19;5398444;26;19995;-72
2024/04/15 01:55:07;;;;;;;2.97;1.10;;;;;;;19.53;44.53;101317.69;5399635;26;20002;-71
2024/04/15 01:57:32;;;;;;;3.85;1.48;;;;;;;19.55;44.77;101325.50;5399137;26;20048;-71
2024/04/15 01:59:58;;;;;;;3.75;1.30;;;;;;;19.54;44.82;101316.75;5398480;26;19999;-73
2024/04/15 02:02:23;;;;;;;4.90;1.40;;;;;;;19.60;44.45;101320.72;5397701;26;20099;-71
2024/04/15 02:04:48;;;;;;;3.42;1.10;;;;;;;19.55;44.93;101309.66;5396508;26;20808;-71
2024/04/15 02:07:14;;;;;;;4.80;1.42;;;;;;;19.58;44.72;101312.91;5398662;26;20003;-70
2024/04/15 02:09:39;;;;;;;4.50;1.52;;;;;;;19.51;44.80;101295.84;5398998;26;20034;-71
2024/04/15 02:12:05;;;;;;;2.83;1.10;;;;;;;19.59;44.70;101300.53;5398403;26;20032;-71
2024/04/15 02:14:30;;;;;;;3.17;1.05;;;;;;;19.52;44.52;101284.31;5398564;26;20033;-70
2024/04/15 02:16:55;;;;;;;3.28;1.23;;;;;;;19.64;44.63;101302.78;5396898;26;19999;-72
2024/04/15 02:19:20;;;;;;;3.03;1.13;;;;;;;19.53;44.47;101279.88;5398916;26;19999;-71
2024/04/15 02:21:46;;;;;;;4.80;1.20;;;;;;;19.58;44.31;101293.53;5397447;26;20002;-73
2024/04/15 02:24:13;;;;;;;3.10;1.08;;;;;;;19.62;44.58;101299.44;5399183;26;20064;-70
2024/04/15 02:26:39;;;;;;;2.78;0.90;;;;;;;19.56;43.97;101288.38;5397718;26;19996;-70
2024/04/15 02:29:04;;;;;;;3.33;1.23;;;;;;;19.42;44.33;101261.38;5398304;26;20081;-73
2024/04/15 02:31:29;;;;;;;2.25;0.77;;;;;;;19.56;44.54;101282.25;5396767;26;20090;-70
2024/04/15 02:33:55;;;;;;;3.85;1.00;;;;;;;19.44;44.33;101260.31;5397755;26;20006;-73
2024/04/15 02:36:20;;;;;;;3.83;1.15;;;;;;;19.53;44.08;101269.28;5398764;26;20073;-70
2024/04/15 02:38:46;;;;;;;2.58;1.00;;;;;;;19.54;44.16;101277.09;5397698;26;20561;-71
2024/04/15 02:41:11;;;;;;;3.67;1.00;;;;;;;19.48;44.20;101258.25;5398233;26;20075;-70
2024/04/15 02:43:37;;;;;;;2.88;1.00;;;;;;;19.48;44.02;101259.06;5398523;26;19996;-71
2024/04/15 02:46:02;;;;;;;3.55;1.02;;;;;;;19.52;43.95;101272.91;5397231;26;20489;-73
2024/04/15 02:48:27;;;;;;;2.63;1.00;;;;;;;19.46;43.87;101261.00;5397346;26;19996;-70
2024/04/15 02:50:52;;;;;;;2.63;1.10;;;;;;;19.55;43.81;101278.78;5399296;26;20045;-73
2024/04/15 02:53:18;;;;;;;4.43;1.08;;;;;;;19.43;43.75;101255.16;5401482;26;20292;-70
2024/04/15 02:55:43;;;;;;;4.28;1.20;;;;;;;19.45;43.87;101253.22;5399319;26;20040;-74
2024/04/15 02:58:08;;;;;;;2.92;1.05;;;;;;;19.54;43.82;101273.63;5401895;26;19999;-70
2024/04/15 03:00:34;;;;;;;2.88;0.95;;;;;;;19.41;43.72;101255.25;5401430;26;20000;-72
2024/04/15 03:02:59;;;;;;;2.88;1.00;;;;;;;19.47;43.93;101256.56;5398889;26;19995;-70
2024/04/15 03:05:24;;;;;;;4.00;0.90;;;;;;;19.49;43.50;101258.13;5401839;26;20441;-71
2024/04/15 03:07:50;;;;;;;2.58;0.90;;;;;;;19.48;43.65;101255.59;5401411;26;19996;-70
2024/04/15 03:10:15;;;;;;;3.65;1.10;;;;;;;19.52;43.56;101260.53;5401146;26;20997;-70
2024/04/15 03:12:40;;;;;;;2.97;1.00;;;;;;;19.51;43.41;101252.72;5401425;26;20061;-70
2024/04/15 03:15:06;;;;;;;3.30;1.00;;;;;;;19.50;43.81;101251.88;5401377;26;20117;-71
2024/04/15 03:17:31;;;;;;;2.78;1.00;;;;;;;19.37;43.51;101224.75;5400901;26;20473;-73
2024/04/15 03:19:56;;;;;;;3.28;0.85;;;;;;;19.43;43.72;101232.19;5399115;26;20448;-71
2024/04/15 03:22:22;;;;;;;2.20;0.90;;;;;;;19.35;43.21;101214.28;5401305;26;20518;-72
2024/04/15 03:24:48;;;;;;;4.50;0.90;;;;;;;19.39;43.48;101214.88;5400798;26;19996;-71
2024/04/15 03:27:13;;;;;;;4.57;1.30;;;;;;;19.45;43.52;101232.88;5400818;26;19992;-71
2024/04/15 03:29:38;;;;;;;3.30;0.75;;;;;;;19.47;43.69;101232.78;5400919;26;19992;-73
2024/04/15 03:32:04;;;;;;;2.35;0.80;;;;;;;19.39;43.52;101215.75;5398534;26;20026;-71
2024/04/15 03:34:29;;;;;;;4.20;0.90;;;;;;;19.46;43.70;101223.19;5401203;26;20003;-72
2024/04/15 03:36:55;;;;;;;3.88;0.93;;;;;;;19.34;43.42;101193.28;5399885;26;19991;-71
2024/04/15 03:39:20;;;;;;;3.15;0.85;;;;;;;19.35;43.38;101194.97;5401393;26;20856;-72
2024/04/15 03:41:46;;;;;;;4.20;0.98;;;;;;;19.46;43.43;101209.97;5400451;26;20032;-71
2024/04/15 03:44:11;;;;;;;4.50;1.00;;;;;;;19.44;43.43;101206.59;5399104;26;19996;-69
2024/04/15 03:46:36;;;;;;;3.67;1.27;;;;;;;19.42;43.44;101198.78;5400781;26;20507;-71
2024/04/15 03:49:01;;;;;;;3.63;1.20;;;;;;;19.42;43.40;101196.13;5400834;26;20005;-71
2024/04/15 03:51:27;;;;;;;3.55;0.90;;;;;;;19.37;43.38;101185.94;5400599;26;20298;-71
2024/04/15 03:53:52;;;;;;;3.83;1.05;;;;;;;19.34;43.26;101180.94;5400832;26;19995;-71
2024/04/15 03:56:17;;;;;;;4.35;0.88;;;;;;;19.28;43.29;101159.41;5400842;26;20003;-70
2024/04/15 03:58:43;;;;;;;3.53;1.27;;;;;;;19.42;43.31;101185.56;5398327;26;20026;-73
2024/04/15 04:01:08;;;;;;;3.38;0.90;;;;;;;19.29;43.41;101154.00;5401173;26;20345;-70
2024/04/15 04:03:33;;;;;;;4.22;1.23;;;;;;;19.39;43.30;101169.94;5397835;26;20544;-74
2024/04/15 04:05:59;;;;;;;3.90;1.00;;;;;;;19.41;43.33;101173.34;5399952;26;20456;-71
2024/04/15 04:08:24;;;;;;;3.67;1.10;;;;;;;19.34;43.44;101153.63;5400996;26;20007;-74
2024/04/15 04:10:49;;;;;;;3.35;1.00;;;;;;;19.39;43.64;101164.66;5399067;26;20040;-71
2024/04/15 04:13:15;;;;;;;5.13;0.85;;;;;;;19.39;43.27;101165.53;5398337;26;20000;-71
2024/04/15 04:15:40;;;;;;;5.38;1.13;;;;;;;19.32;43.13;101153.75;5399112;26;20429;-71
2024/04/15 04:18:06;;;;;;;2.28;0.80;;;;;;;19.32;43.33;101153.75;5399924;26;20042;-71
2024/04/15 04:20:32;;;;;;;2.90;0.80;;;;;;;19.38;43.30;101160.38;5400329;26;19999;-71
2024/04/15 04:22:57;;;;;;;4.30;1.40;;;;;;;19.36;42.94;101155.19;5400022;26;20398;-71
2024/04/15 04:25:23;;;;;;;4.20;1.02;;;;;;;19.26;43.09;101134.94;5400361;26;20512;-72
2024/04/15 04:27:49;;;;;;;3.25;0.85;;;;;;;19.37;43.24;101145.47;5399198;26;20020;-72
2024/04/15 04:30:14;;;;;;;3.78;1.02;;;;;;;19.36;43.25;101141.16;5399957;26;20674;-71
2024/04/15 04:32:40;;;;;;;3.47;0.90;;;;;;;19.23;43.35;101128.09;5399162;26;20349;-73
2024/04/15 04:35:05;;;;;;;3.42;0.90;;;;;;;19.18;43.18;101102.06;5399338;26;20097;-73
2024/04/15 04:37:30;;;;;;;4.68;1.13;;;;;;;19.22;43.05;101107.94;5400073;26;19996;-71
2024/04/15 04:39:56;;;;;;;3.53;0.93;;;;;;;19.35;43.38;101123.63;5397388;26;20892;-74
2024/04/15 04:42:21;;;;;;;6.00;1.40;;;;;;;19.32;43.15;101122.06;5399860;26;20032;-71
2024/04/15 04:44:47;;;;;;;4.15;1.02;;;;;;;19.26;42.99;101111.16;5399362;26;20043;-71
2024/04/15 04:47:13;;;;;;;4.88;1.20;;;;;;;19.27;43.05;101113.66;5399626;26;20345;-71
2024/04/15 04:49:38;;;;;;;4.07;1.10;;;;;;;19.22;43.11;101105.28;5399785;26;20003;-75
2024/04/15 04:52:04;;;;;;;3.50;1.10;;;;;;;19.23;43.21;101104.31;5399623;26;19991;-71
2024/04/15 04:54:29;;;;;;;3.53;0.95;;;;;;;19.16;43.04;101098.69;5399097;26;19992;-69
2024/04/15 04:56:54;;;;;;;4.07;0.90;;;;;;;19.29;43.15;101110.91;5399964;26;19995;-70
2024/04/15 04:59:19;;;;;;;4.75;1.23;;;;;;;19.30;43.15;101115.22;5399687;26;20210;-70
2024/04/15 05:01:45;;;;;;;4.60;1.10;;;;;;;19.25;43.15;101114.75;5397652;26;20003;-70
2024/04/15 05:04:10;;;;;;;2.63;1.02;;;;;;;19.29;42.98;101110.91;5396589;26;20072;-71
2024/04/15 05:06:36;;;;;;;3.78;1.00;;;;;;;19.27;43.07;101110.19;5399722;26;20007;-73
2024/04/15 05:09:02;;;;;;;4.10;1.10;;;;;;;19.17;43.10;101084.53;5398607;26;19991;-73
2024/04/15 05:11:28;;;;;;;5.30;1.58;;;;;;;19.07;43.27;101070.38;5399541;26;20007;-73
2024/04/15 05:13:54;;;;;;;4.25;1.38;;;;;;;19.12;42.97;101075.28;5397720;26;20076;-71
2024/04/15 05:16:19;;;;;;;3.38;0.90;;;;;;;19.06;42.98;101062.56;5398850;26;20449;-72
2024/04/15 05:18:44;;;;;;;3.53;1.08;;;;;;;19.25;43.14;101093.59;5399579;26;19995;-71
2024/04/15 05:21:16;;;;;;;3.70;0.95;;;;;;;19.16;43.25;101080.19;5396864;26;20003;-71
2024/04/15 05:23:42;;;;;;;4.50;1.10;;;;;;;19.19;43.18;101082.59;5398772;26;19995;-72
2024/04/15 05:26:07;;;;;;;4.57;1.13;;;;;;;19.11;42.86;101063.88;5399779;26;20021;-71
2024/04/15 05:28:32;;;;;;;5.25;1.92;;;;;;;19.16;42.75;101068.81;5399472;26;20004;-71
2024/04/15 05:30:58;;;;;;;4.47;1.80;;;;;;;19.18;43.11;101080.94;5398651;26;20446;-73
2024/04/15 05:33:23;;;;;;;4.82;1.42;;;;;;;19.18;42.93;101073.00;5399466;26;19996;-71
2024/04/15 05:35:49;;;;;;;4.95;1.20;;;;;;;19.14;43.07;101071.56;5398515;26;20015;-71
2024/04/15 05:38:15;;;;;;;4.47;1.20;;;;;;;19.24;43.17;101084.03;5399071;26;20011;-73
2024/04/15 05:40:40;;;;;;;5.68;1.67;;;;;;;19.17;43.20;101065.19;5399390;26;20007;-71
2024/04/15 05:43:10;;;;;;;5.28;1.27;;;;;;;19.25;43.26;101078.63;5398641;26;20065;-73
2024/04/15 05:45:36;;;;;;;4.60;1.25;;;;;;;19.26;43.10;101077.63;5398506;26;20038;-71
2024/04/15 05:48:02;;;;;;;5.60;1.40;;;;;;;19.24;43.33;101074.28;5398732;26;20400;-72
2024/04/15 05:50:28;;;;;;;3.65;1.23;;;;;;;19.05;43.14;101042.44;5396972;26;19991;-72
2024/04/15 05:52:53;;;;;;;4.18;1.42;;;;;;;19.24;43.00;101076.94;5395500;26;20867;-74
2024/04/15 05:55:19;;;;;;;3.85;1.27;;;;;;;19.19;43.29;101079.94;5398489;26;20005;-72
2024/04/15 05:57:44;;;;;;;4.07;1.23;;;;;;;19.09;43.03;101049.97;5396080;26;20010;-72
2024/04/15 06:00:11;;;;;;;5.68;1.30;;;;;;;19.20;42.99;101067.56;5395782;26;20477;-71
2024/04/15 06:02:37;;;;;;;4.00;1.40;;;;;;;19.12;43.04;101055.00;5396618;26;19999;-71
2024/04/15 06:05:02;;;;;;;3.65;1.00;;;;;;;19.21;42.96;101062.16;5388699;26;20105;-71
2024/04/15 06:07:29;;;;;;;3.08;0.98;;;;;;;19.13;42.94;101048.75;5379520;26;20007;-72
2024/04/15 06:09:54;;;;;;;4.95;1.30;;;;;;;19.21;43.51;101070.06;5381758;26;20092;-72
2024/04/15 06:12:19;;;;;;;4.65;1.30;;;;;;;19.15;43.22;101049.47;5396493;26;19995;-72
2024/04/15 06:14:45;;;;;;;2.78;0.93;;;;;;;19.23;43.37;101053.28;5398016;26;19995;-72
2024/04/15 06:17:10;;;;;;;3.30;1.02;;;;;;;19.20;43.42;101060.50;5397306;26;20022;-71
2024/04/15 06:19:35;;;;;;;4.20;1.20;;;;;;;19.11;43.69;101037.47;5396655;26;20009;-73
2024/04/15 06:22:01;;;;;;;4.68;1.20;;;;;;;19.21;43.60;101048.13;5398480;26;20007;-71
2024/04/15 06:24:27;;;;;;;4.85;1.13;;;;;;;19.10;43.76;101029.69;5398274;26;20003;-71
2024/04/15 06:26:52;;;;;;;3.63;1.10;;;;;;;19.24;44.06;101044.41;5397129;26;20006;-72
2024/04/15 06:29:18;;;;;;;3.22;1.13;;;;;;;19.14;43.97;101029.28;5398996;26;20394;-71
2024/04/15 06:31:43;;;;;;;5.63;1.50;;;;;;;19.20;44.19;101031.44;5396266;26;20471;-72
2024/04/15 06:34:13;;;;;;;3.85;1.20;;;;;;;19.20;44.32;101034.06;5398053;26;20064;-72
2024/04/15 06:36:39;;;;;;;4.82;1.40;;;;;;;18.98;44.36;100991.91;5397739;26;20003;-71
2024/04/15 06:39:04;;;;;;;5.65;1.20;;;;;;;19.15;44.15;101012.50;5397803;26;19996;-70
2024/04/15 06:41:29;;;;;;;4.95;1.10;;;;;;;19.11;44.20;100986.44;5397761;26;19995;-72
2024/04/15 06:43:57;;;;;;;4.75;1.40;;;;;;;19.19;44.28;101005.97;5398179;26;19991;-71
2024/04/15 06:46:24;;;;;;;4.30;1.20;;;;;;;19.07;44.05;100975.28;5398395;26;20002;-72
2024/04/15 06:48:50;;;;;;;5.80;1.58;;;;;;;19.17;44.54;100991.22;5397586;26;20416;-74
2024/04/15 06:51:15;;;;;;;3.60;1.08;;;;;;;19.15;44.37;100988.72;5398568;26;19995;-72
2024/04/15 06:53:41;;;;;;;4.57;1.50;;;;;;;19.16;44.71;100978.97;5397619;26;20006;-72
2024/04/15 06:56:08;;;;;;;3.35;1.10;;;;;;;19.24;44.75;100987.09;5398132;26;19991;-70
2024/04/15 06:58:34;;;;;;;4.25;1.10;;;;;;;19.16;45.09;100958.66;5397735;26;19995;-70
2024/04/15 07:00:59;;;;;;;5.82;1.45;;;;;;;19.10;44.94;100942.50;5394983;26;20667;-71
2024/04/15 07:03:24;;;;;;;2.95;1.17;;;;;;;19.29;45.22;100962.94;5396301;26;19995;-70
2024/04/15 07:05:50;;;;;;;3.47;1.02;;;;;;;19.26;45.17;100950.81;5396925;26;20007;-71
2024/04/15 07:08:15;;;;;;;4.30;1.00;;;;;;;19.21;45.18;100950.34;5397983;26;19999;-70
2024/04/15 07:10:41;;;;;;;6.13;1.45;;;;;;;19.26;45.45;100949.97;5397626;26;20283;-72
2024/04/15 07:13:08;;;;;;;4.35;1.30;;;;;;;19.29;45.08;100944.44;5393871;26;20398;-70
2024/04/15 07:15:33;;;;;;;5.00;1.30;;;;;;;18.96;45.28;100880.25;5397080;26;20068;-71
2024/04/15 07:17:59;;;;;;;3.45;1.15;;;;;;;19.32;45.36;100915.94;5397559;26;20007;-72
2024/04/15 07:20:24;;;;;;;5.80;1.17;;;;;;;19.36;45.25;100935.03;5397606;26;20495;-73
2024/04/15 07:22:50;;;;;;;3.92;1.10;;;;;;;19.19;45.11;100897.66;5396846;26;20010;-75
2024/04/15 07:25:16;;;;;;;4.25;1.08;;;;;;;19.29;44.79;100904.78;5397683;26;20030;-66
2024/04/15 07:27:42;;;;;;;6.32;1.25;;;;;;;19.32;44.91;100910.66;5392568;26;20010;-71
2024/04/15 07:30:07;;;;;;;5.85;1.23;;;;;;;19.31;45.19;100895.78;5390685;26;20525;-72
2024/04/15 07:32:33;;;;;;;4.97;1.15;;;;;;;19.31;45.12;100879.94;5395860;26;19995;-71
2024/04/15 07:34:58;;;;;;;5.63;1.10;;;;;;;19.30;45.09;100883.53;5393473;26;20352;-70
2024/04/15 07:37:24;;;;;;;5.13;1.30;;;;;;;19.37;45.22;100874.09;5394050;26;20003;-71
2024/04/15 07:39:50;;;;;;;5.05;1.25;;;;;;;19.47;44.91;100883.88;5398172;26;20449;-71
2024/04/15 07:42:15;;;;;;;4.75;1.10;;;;;;;19.42;45.02;100876.34;5397176;26;20003;-71
2024/04/15 07:44:41;;;;;;;5.45;1.25;;;;;;;19.44;45.21;100858.56;5395979;26;20795;-71
2024/04/15 07:47:07;;;;;;;5.82;1.35;;;;;;;19.40;45.06;100843.94;5397115;26;20338;-71
2024/04/15 07:49:33;;;;;;;4.97;1.50;;;;;;;19.40;45.04;100843.94;5396651;26;20086;-71
2024/04/15 07:51:58;;;;;;;6.97;1.30;;;;;;;19.54;44.28;100861.25;5396947;26;20146;-72
2024/04/15 07:54:24;;;;;;;5.70;1.10;;;;;;;19.54;44.70;100854.13;5398691;26;20023;-73
2024/04/15 07:56:49;;;;;;;6.05;1.60;;;;;;;19.40;44.50;100814.84;5396041;26;19999;-73
2024/04/15 07:59:14;;;;;;;5.07;1.30;;;;;;;19.53;44.29;100833.13;5396399;26;20019;-72
2024/04/15 08:01:40;;;;;;;5.10;1.00;;;;;;;19.56;44.56;100844.25;5395559;26;20014;-71
2024/04/15 08:04:06;;;;;;;4.28;1.65;;;;;;;19.45;44.59;100831.16;5397253;26;20041;-71
2024/04/15 08:06:32;;;;;;;7.13;1.50;;;;;;;19.46;44.44;100814.31;5399182;26;20042;-74
2024/04/15 08:08:57;;;;;;;3.97;1.30;;;;;;;19.57;44.74;100830.09;5398011;26;20350;-71
2024/04/15 08:11:23;;;;;;;5.00;1.20;;;;;;;19.34;44.57;100792.47;5391387;26;19996;-71
2024/04/15 08:13:49;;;;;;;5.65;1.00;;;;;;;19.50;44.30;100812.25;5394907;26;20044;-71
2024/04/15 08:16:14;;;;;;;4.90;1.10;;;;;;;19.55;44.39;100817.97;5391939;26;20023;-71
2024/04/15 08:18:40;;;;;;;4.18;1.10;;;;;;;19.46;44.73;100795.00;5392759;26;20682;-70
2024/04/15 08:21:05;;;;;;;5.35;1.10;;;;;;;19.46;44.30;100793.19;5394887;26;20030;-71
2024/04/15 08:23:30;;;;;;;3.78;1.10;;;;;;;19.49;44.47;100789.44;5395033;26;20936;-71
2024/04/15 08:25:56;;;;;;;4.18;1.10;;;;;;;19.55;44.49;100795.03;5393681;26;20006;-70
2024/04/15 08:28:23;;;;;;;4.15;1.10;;;;;;;19.58;44.46;100799.19;5395310;26;20129;-70
2024/04/15 08:30:48;;;;;;;4.65;1.20;;;;;;;19.46;44.50;100772.03;5395449;26;20008;-70
2024/04/15 08:33:13;;;;;;;5.22;1.13;;;;;;;19.46;44.48;100773.84;5394946;26;20007;-70
2024/04/15 08:35:39;;;;;;;6.72;1.38;;;;;;;19.40;44.52;100760.19;5394842;26;20349;-71
2024/04/15 08:38:08;;;;;;;4.43;1.33;;;;;;;19.32;44.74;100740.72;5394590;26;20023;-70
2024/04/15 08:40:34;;;;;;;3.75;0.93;;;;;;;19.55;44.43;100768.59;5393775;26;20166;-70
2024/04/15 08:43:04;;;;;;;5.97;1.10;;;;;;;19.51;44.65;100759.25;5394442;26;19999;-70
2024/04/15 08:45:30;;;;;;;3.13;0.80;;;;;;;19.32;44.57;100711.66;5392062;26;20820;-70
2024/04/15 08:47:57;;;;;;;5.18;0.98;;;;;;;19.51;44.55;100745.22;5389493;26;19999;-71
2024/04/15 08:50:24;;;;;;;6.88;1.33;;;;;;;19.55;44.58;100755.38;5391330;26;20079;-69
2024/04/15 08:52:52;;;;;;;5.10;1.08;;;;;;;19.50;44.24;100730.31;5390544;26;19996;-69
2024/04/15 08:55:18;;;;;;;4.65;1.13;;;;;;;19.55;44.70;100728.94;5386622;26;19991;-72
2024/04/15 08:57:46;;;;;;;3.60;1.05;;;;;;;19.40;44.20;100699.41;5388984;26;20002;-71
2024/04/15 09:00:14;;;;;;;6.05;1.70;;;;;;;19.50;44.35;100709.16;5392631;26;20019;-72
2024/04/15 09:02:40;;;;;;;5.70;1.30;;;;;;;19.43;44.34;100697.47;5390699;26;20051;-71
2024/04/15 09:05:05;;;;;;;4.80;1.08;;;;;;;19.54;44.29;100702.66;5392441;26;20405;-69
2024/04/15 09:07:30;;;;;;;4.38;1.38;;;;;;;19.45;44.25;100680.50;5391783;26;20035;-70
2024/04/15 09:09:56;;;;;;;4.47;0.97;;;;;;;19.49;44.13;100675.78;5390413;26;20011;-70
2024/04/15 09:12:21;;;;;;;7.85;1.48;;;;;;;19.45;43.94;100655.88;5390253;26;20305;-70
2024/04/15 09:14:46;;;;;;;4.20;1.25;;;;;;;19.58;43.73;100670.50;5391621;26;20008;-70
2024/04/15 09:17:12;;;;;;;4.47;1.17;;;;;;;19.50;43.74;100659.81;5391088;26;20127;-70
2024/04/15 09:19:44;;;;;;;3.60;0.85;;;;;;;19.55;43.95;100656.72;5391810;26;19999;-71
2024/04/15 09:22:11;;;;;;;4.93;1.05;;;;;;;19.64;43.87;100668.28;5392254;26;20023;-71
2024/04/15 09:24:37;;;;;;;5.80;1.10;;;;;;;19.65;43.95;100657.56;5393276;26;20468;-70
2024/04/15 09:27:03;;;;;;;3.47;1.00;;;;;;;19.60;43.86;100636.00;5391926;26;20015;-69
2024/04/15 09:29:28;;;;;;;6.70;1.77;;;;;;;19.53;43.97;100633.06;5392569;26;20040;-72
2024/04/15 09:31:55;;;;;;;7.10;1.27;;;;;;;19.58;43.83;100636.16;5392422;26;19999;-70
2024/04/15 09:34:21;;;;;;;5.50;1.00;;;;;;;19.65;43.58;100625.84;5390074;26;20067;-68
2024/04/15 09:36:46;;;;;;;4.88;1.38;;;;;;;19.57;43.79;100601.94;5390832;26;20043;-68
2024/04/15 09:39:13;;;;;;;4.20;0.90;;;;;;;19.52;43.25;100586.47;5392056;26;20075;-70
2024/04/15 09:41:38;;;;;;;6.60;1.08;;;;;;;19.68;43.68;100593.84;5392303;26;20004;-69
2024/04/15 09:44:08;;;;;;;2.80;0.85;;;;;;;19.60;43.56;100577.84;5391642;26;20068;-67
2024/04/15 09:46:35;;;;;;;3.92;0.95;;;;;;;19.55;43.52;100564.19;5391740;26;20031;-68
2024/04/15 09:49:03;;;;;;;3.67;1.05;;;;;;;19.71;43.11;100577.69;5389335;26;20008;-67
2024/04/15 09:51:32;;;;;;;6.07;1.23;;;;;;;19.66;43.18;100568.50;5392137;26;20015;-68
2024/04/15 09:54:01;;;;;;;5.93;1.30;;;;;;;19.68;43.34;100550.72;5394124;26;20007;-68
2024/04/15 09:56:28;;;;;;;4.82;1.10;;;;;;;19.60;43.27;100543.50;5396937;26;20018;-69
2024/04/15 09:58:55;;;;;;;4.30;0.90;;;;;;;19.69;43.56;100542.66;5396193;26;20464;-72
2024/04/15 10:01:25;;;;;;;5.40;0.95;;;;;;;19.73;43.53;100532.63;5396664;26;20003;-72
2024/04/15 10:03:52;;;;;;;3.80;1.05;;;;;;;19.60;43.42;100506.50;5395353;26;20076;-72
2024/04/15 10:06:27;;;;;;;11.73;1.48;;;;;;;19.74;43.31;100513.09;5397227;26;20014;-71
2024/04/15 10:08:53;;;;;;;4.25;1.08;;;;;;;19.76;42.65;100513.84;5396938;26;20618;-70
2024/04/15 10:11:20;;;;;;;4.80;1.27;;;;;;;19.66;43.12;100486.56;5396959;26;20478;-71
2024/04/15 10:13:45;;;;;;;3.80;1.30;;;;;;;19.57;43.15;100460.00;5396783;26;20000;-72
2024/04/15 10:16:19;;;;;;;4.50;1.15;;;;;;;19.79;42.73;100492.41;5397889;26;20014;-71
2024/04/15 10:18:51;;;;;;;7.80;1.60;;;;;;;19.66;43.06;100452.19;5396391;26;20015;-71
2024/04/15 10:21:18;;;;;;;6.63;1.20;;;;;;;19.73;43.21;100455.94;5396162;26;20014;-73
2024/04/15 10:23:44;;;;;;;4.03;1.10;;;;;;;19.78;43.08;100466.13;5397358;26;19991;-72
2024/04/15 10:26:10;;;;;;;4.22;1.05;;;;;;;19.64;43.08;100431.19;5396588;26;19995;-72
2024/04/15 10:28:35;;;;;;;8.75;1.45;;;;;;;19.70;43.05;100425.31;5397227;26;20009;-72
2024/04/15 10:31:01;;;;;;;3.78;1.20;;;;;;;19.82;43.33;100447.19;5396498;26;20029;-74
2024/04/15 10:33:26;;;;;;;4.47;0.98;;;;;;;19.64;43.07;100417.16;5397100;26;20047;-72
2024/04/15 10:35:53;;;;;;;3.33;1.02;;;;;;;19.80;43.16;100435.06;5396198;26;19991;-73
2024/04/15 10:38:19;;;;;;;4.38;1.05;;;;;;;19.69;43.13;100413.09;5397361;26;19996;-71
2024/04/15 10:40:47;;;;;;;7.15;1.35;;;;;;;19.77;42.97;100430.06;5395772;26;20413;-73
2024/04/15 10:43:14;;;;;;;5.85;1.10;;;;;;;19.84;43.35;100410.00;5396399;26;19996;-72
2024/04/15 10:45:39;;;;;;;4.47;1.02;;;;;;;19.78;43.18;100387.63;5397068;26;20015;-72
2024/04/15 10:48:05;;;;;;;6.07;1.42;;;;;;;19.73;43.27;100361.59;5396111;26;20452;-72
2024/04/15 10:50:31;;;;;;;3.50;1.00;;;;;;;19.81;43.51;100381.22;5397172;26;20000;-73
2024/04/15 10:52:56;;;;;;;4.75;1.08;;;;;;;19.67;43.04;100348.94;5395353;26;20011;-72
2024/04/15 10:55:22;;;;;;;3.42;1.05;;;;;;;19.71;43.15;100345.03;5397586;26;19991;-70
2024/04/15 10:57:49;;;;;;;5.75;1.33;;;;;;;19.83;42.53;100364.22;5395958;26;19999;-74
2024/04/15 11:00:17;;;;;;;5.05;1.23;;;;;;;19.83;43.12;100356.28;5395940;26;20153;-70
2024/04/15 11:02:44;;;;;;;5.07;1.25;;;;;;;19.83;43.11;100342.22;5392665;26;19995;-72
2024/04/15 11:05:11;;;;;;;4.25;1.05;;;;;;;19.77;44.00;100334.88;5396505;26;20011;-72
2024/04/15 11:07:44;;;;;;;4.45;0.93;;;;;;;19.82;43.52;100332.63;5395769;26;19996;-72
2024/04/15 11:10:11;;;;;;;4.32;1.02;;;;;;;19.73;43.22;100323.75;5396211;26;20534;-70
2024/04/15 11:12:38;;;;;;;7.65;0.95;;;;;;;19.65;43.22;100321.84;5398060;26;20003;-74
2024/04/15 11:15:08;;;;;;;3.95;1.08;;;;;;;19.70;43.01;100331.97;5397946;26;19995;-70
2024/04/15 11:17:35;;;;;;;5.63;1.00;;;;;;;19.78;43.31;100340.03;5400000;26;20020;-71